Terminal Aerodrome Forecast
Issued by NWS Albuquerque, NM

Home | Current Version | Previous Version | Text Only | Print | Product List | Glossary On
Versions: 1 2 3 4 5 6 7 8 9 10 11 12 13 14
784
FTUS45 KABQ 280528
TAFABQ
TAF
KABQ 280528Z 2806/2906 VRB05KT P6SM FEW150
     FM281900 21006KT P6SM FEW090
     FM290100 02012KT P6SM SCT090=

USA.gov is the U.S. government's official web portal to all federal, state and local government web resources and services.